Latest Weather Observations for Roxby Downs

IDS60801

Issued at 11:31 pm CST Friday 29 May 2015 (issued every 30 minutes, with the page automatically refreshed every 10 minutes)

About weather observations | Map of weather stations | Latest weather observations for SA | Other Formats
Station Details ID: 016096 Name: OLYMPIC DAM AERODROME Lat: -30.48 Lon: 136.88 Height: 98.5 m
Data from the previous 72 hours. | See also: Recent months at Roxby Downs
Date/Time
CST
Temp
°C
App
Temp
°C
Dew
Point
Rel
Hum
%
Delta-T
°C
Wind Press
QNH
hPa
Press
MSL
hPa
Rain
since 9 am
mm
Dir
 
Spd
km/h
Gust
km/h
Spd
kts
Gust
kts
29/11:30pm 13.9 14.7 12.5 91 0.8 CALM 0 0 0 0 1023.8 1023.8 0.2
29/11:00pm 14.1 13.2 12.5 90 0.9 S 9 11 5 6 1023.9 1023.9 0.2
29/10:30pm 14.3 13.5 12.9 91 0.8 SSW 9 11 5 6 1024.1 1024.1 0.2
29/10:00pm 14.4 14.2 13.0 91 0.8 S 6 7 3 4 1024.3 1024.3 0.2
29/09:30pm 14.6 14.2 13.0 90 0.9 SSE 7 11 4 6 1024.0 1024.0 0.2
29/09:00pm 14.6 14.2 13.0 90 0.9 S 7 11 4 6 1024.1 1024.1 0.2
29/08:30pm 14.8 14.0 13.0 89 1.0 S 9 13 5 7 1024.1 1024.1 0.2
29/08:00pm 14.9 14.2 13.3 90 0.9 S 9 13 5 7 1024.2 1024.2 0.2
29/07:30pm 14.9 14.2 13.3 90 0.9 S 9 13 5 7 1023.8 1023.8 0.2
29/07:00pm 15.1 14.1 13.3 89 1.0 SSE 11 17 6 9 1023.2 1023.1 0.2
29/06:30pm 15.1 14.1 13.5 90 0.9 S 11 15 6 8 1023.1 1023.0 0.2
29/06:00pm 15.2 14.3 13.6 90 0.9 SSE 11 15 6 8 1022.9 1022.8 0.2
29/05:30pm 15.2 14.6 13.4 89 1.0 SE 9 11 5 6 1022.7 1022.6 0.2
29/05:00pm 15.3 14.3 13.3 88 1.1 S 11 13 6 7 1022.8 1022.7 0.2
29/04:30pm 15.4 13.9 13.2 87 1.2 SSW 13 15 7 8 1023.3 1023.2 0.2
29/04:00pm 15.6 14.7 13.8 89 1.0 SSW 11 13 6 7 1023.2 1023.1 0.2
29/03:30pm 15.7 14.0 13.5 87 1.2 S 15 19 8 10 1022.7 1022.6 0.2
29/03:26pm 15.7 14.0 13.5 87 1.2 S 15 19 8 10 1022.5 1022.4 0.2
29/03:00pm 15.9 14.7 13.9 88 1.1 SSW 13 17 7 9 1023.0 1022.9 0.2
29/02:54pm 15.9 14.7 13.9 88 1.1 SSW 13 17 7 9 1023.0 1022.9 0.2
29/02:30pm 16.0 15.5 13.8 87 1.2 SSW 9 11 5 6 1022.7 1022.6 0.0
29/02:00pm 16.4 16.3 13.9 85 1.4 ESE 7 9 4 5 1022.6 1022.5 0.0
29/01:30pm 16.1 15.6 13.8 86 1.3 ESE 9 13 5 7 1022.6 1022.5 0.0
29/01:20pm 16.0 15.1 13.7 86 1.3 SE 11 13 6 7 1022.7 1022.6 0.0
29/01:00pm 15.9 15.1 14.1 89 1.0 SSE 11 15 6 8 1022.9 1022.8 0.0
29/12:30pm 15.9 15.5 14.1 89 1.0 S 9 13 5 7 1023.7 1023.7 0.0
29/12:25pm 15.9 15.1 13.9 88 1.1 S 11 13 6 7 1023.7 1023.7 0.0
29/12:00pm 15.8 15.5 14.3 91 0.9 SSE 9 13 5 7 1024.0 1024.0 0.0
29/11:30am 15.7 15.3 14.2 91 0.9 SE 9 11 5 6 1024.1 1024.1 0.0
29/11:00am 15.4 14.6 13.9 91 0.8 SE 11 13 6 7 1024.3 1024.3 0.0
29/10:45am 15.3 14.8 13.7 90 0.9 SE 9 11 5 6 1024.6 1024.6 0.0
29/10:30am 15.3 14.4 13.8 91 0.8 SE 11 13 6 7 1024.6 1024.6 0.0
29/10:00am 15.2 14.4 14.1 93 0.6 SSE 11 13 6 7 1024.6 1024.6 0.0
29/09:58am 15.2 14.4 14.1 93 0.6 SSE 11 13 6 7 1024.5 1024.5 0.0
29/09:30am 15.0 15.2 14.2 95 0.5 SE 6 7 3 4 1024.6 1024.6 0.0
29/09:00am 14.8 15.0 14.2 96 0.3 SSE 6 9 3 5 1024.2 1024.2 12.8
29/08:30am 14.7 16.0 14.1 96 0.3 CALM 0 0 0 0 1024.0 1024.0 12.8
29/08:00am 14.6 15.5 14.0 96 0.3 SSE 2 6 1 3 1023.8 1023.8 12.8
29/07:30am 14.5 14.6 13.9 96 0.3 ESE 6 7 3 4 1023.4 1023.4 12.8
29/07:00am 14.5 13.7 14.0 97 0.3 SSE 11 15 6 8 1023.4 1023.4 12.8
29/06:30am 14.6 14.3 14.3 98 0.2 SSW 9 11 5 6 1023.2 1023.1 12.8
29/06:00am 14.5 14.5 14.2 98 0.2 SSW 7 11 4 6 1022.7 1022.6 12.8
29/05:30am 14.5 15.8 14.2 98 0.2 CALM 0 0 0 0 1022.7 1022.6 12.8
29/05:00am 14.6 15.9 14.1 97 0.3 CALM 0 0 0 0 1022.5 1022.4 12.6
29/04:30am 14.6 15.9 14.1 97 0.3 CALM 0 0 0 0 1022.2 1022.1 12.6
29/04:00am 14.6 15.9 14.1 97 0.3 CALM 0 4 0 2 1022.5 1022.4 12.6
29/03:30am 14.6 14.3 14.3 98 0.2 SW 9 11 5 6 1022.5 1022.4 12.6
29/03:00am 14.7 16.0 14.2 97 0.3 CALM 0 0 0 0 1022.2 1022.1 12.6
29/02:30am 14.7 14.7 14.2 97 0.3 SSW 7 9 4 5 1022.3 1022.2 12.6
29/02:00am 14.8 15.4 14.3 97 0.3 NW 4 6 2 3 1022.4 1022.3 12.6
29/01:30am 14.8 15.0 14.3 97 0.3 SE 6 7 3 4 1022.2 1022.1 12.6
29/01:00am 14.9 15.6 14.4 97 0.3 S 4 9 2 5 1022.3 1022.2 12.6
29/12:30am 14.8 16.1 14.2 96 0.3 CALM 0 0 0 0 1022.4 1022.3 12.6
29/12:00am 14.8 16.1 14.2 96 0.3 CALM 0 0 0 0 1022.4 1022.3 12.6
 
Date/Time
CST
Temp
°C
App
Temp
°C
Dew
Point
Rel
Hum
%
Delta-T
°C
Wind Press
QNH
hPa
Press
MSL
hPa
Rain
since 9 am
mm
Dir
 
Spd
km/h
Gust
km/h
Spd
kts
Gust
kts
28/11:30pm 14.9 16.3 14.4 97 0.3 CALM 0 0 0 0 1022.8 1022.7 12.4
28/11:00pm 14.7 15.9 13.9 95 0.5 CALM 0 0 0 0 1022.6 1022.5 12.4
28/10:30pm 14.7 16.0 14.1 96 0.3 CALM 0 4 0 2 1022.7 1022.6 12.4
28/10:00pm 14.6 14.4 13.5 93 0.6 SSW 7 9 4 5 1022.8 1022.7 12.2
28/09:30pm 15.0 15.1 14.5 97 0.3 S 7 11 4 6 1022.6 1022.5 12.0
28/09:00pm 14.9 14.6 14.3 96 0.3 SSW 9 13 5 7 1022.7 1022.6 11.8
28/08:30pm 15.0 16.4 14.5 97 0.3 CALM 0 0 0 0 1022.4 1022.3 11.6
28/08:00pm 14.9 16.3 14.4 97 0.3 CALM 0 0 0 0 1021.9 1021.8 11.2
28/07:30pm 14.9 15.2 14.4 97 0.3 SE 6 9 3 5 1021.5 1021.4 10.8
28/07:00pm 14.9 14.9 14.3 96 0.3 SE 7 9 4 5 1021.3 1021.2 10.6
28/06:30pm 14.9 14.6 14.3 96 0.3 S 9 11 5 6 1021.2 1021.1 10.6
28/06:00pm 14.9 14.9 14.3 96 0.3 SSW 7 9 4 5 1021.0 1020.9 10.4
28/05:30pm 14.8 14.9 14.0 95 0.5 SE 6 7 3 4 1020.6 1020.5 10.2
28/05:00pm 14.9 14.9 14.1 95 0.5 SSE 7 11 4 6 1020.5 1020.4 10.2
28/04:30pm 14.9 14.5 14.1 95 0.5 S 9 11 5 6 1020.6 1020.5 10.0
28/04:00pm 15.1 14.8 14.3 95 0.5 S 9 13 5 7 1020.5 1020.4 9.2
28/03:32pm 15.2 14.5 14.2 94 0.6 S 11 15 6 8 1020.5 1020.4 8.8
28/03:30pm 15.2 14.5 14.2 94 0.6 SSW 11 15 6 8 1020.5 1020.4 8.8
28/03:00pm 15.4 14.4 14.6 95 0.5 SW 13 15 7 8 1020.5 1020.4 8.6
28/02:52pm 15.4 14.8 14.6 95 0.5 SW 11 15 6 8 1020.5 1020.4 8.4
28/02:44pm 15.4 14.4 14.6 95 0.5 SW 13 15 7 8 1020.7 1020.6 8.2
28/02:30pm 15.7 15.5 14.7 94 0.6 SSW 9 13 5 7 1020.5 1020.4 7.6
28/02:28pm 15.7 15.5 14.7 94 0.6 SSW 9 13 5 7 1020.5 1020.4 7.6
28/02:07pm 15.9 16.1 14.6 92 0.7 SSW 7 9 4 5 1020.4 1020.3 6.8
28/02:03pm 15.9 16.1 14.6 92 0.7 SSW 7 9 4 5 1020.4 1020.3 6.8
28/02:00pm 15.9 16.1 14.6 92 0.7 SSW 7 9 4 5 1020.4 1020.3 6.8
28/01:46pm 16.0 16.3 14.9 93 0.6 SW 7 9 4 5 1020.5 1020.4 6.8
28/01:44pm 16.0 16.2 14.7 92 0.7 SW 7 9 4 5 1020.5 1020.4 6.8
28/01:30pm 15.9 16.1 14.6 92 0.7 SW 7 9 4 5 1020.5 1020.4 6.6
28/01:00pm 15.7 15.9 14.7 94 0.6 SW 7 9 4 5 1020.8 1020.7 6.2
28/12:39pm 15.7 16.0 14.9 95 0.5 WSW 7 9 4 5 1021.0 1020.9 5.8
28/12:30pm 15.8 16.1 15.0 95 0.5 SW 7 9 4 5 1021.1 1021.0 5.8
28/12:14pm 15.8 15.7 15.0 95 0.5 WSW 9 13 5 7 1021.3 1021.2 5.4
28/12:00pm 15.8 15.3 15.0 95 0.5 WSW 11 15 6 8 1021.4 1021.3 5.2
28/11:30am 15.9 15.9 15.1 95 0.5 WSW 9 13 5 7 1021.8 1021.7 4.2
28/11:05am 15.9 16.5 15.3 96 0.3 WSW 6 7 3 4 1021.9 1021.8 4.0
28/11:00am 16.0 16.6 15.4 96 0.3 WSW 6 9 3 5 1022.0 1021.9 4.0
28/10:57am 15.9 16.3 15.3 96 0.3 W 7 9 4 5 1022.0 1021.9 3.8
28/10:30am 15.8 16.2 15.2 96 0.3 W 7 11 4 6 1022.2 1022.1 2.8
28/10:08am 15.8 15.8 15.2 96 0.3 WNW 9 11 5 6 1022.5 1022.4 1.6
28/10:00am 15.7 15.7 15.1 96 0.3 WNW 9 13 5 7 1022.5 1022.4 1.4
28/09:30am 15.8 15.3 15.0 95 0.5 NW 11 15 6 8 1022.3 1022.2 0.2
28/09:00am 15.8 15.7 15.0 95 0.5 NW 9 13 5 7 1021.9 1021.8 3.4
28/08:30am 15.5 15.7 14.7 95 0.5 NW 7 9 4 5 1021.5 1021.4 3.2
28/08:00am 15.3 15.4 14.5 95 0.5 NW 7 9 4 5 1021.4 1021.3 3.2
28/07:30am 15.2 15.3 14.4 95 0.5 NW 7 9 4 5 1021.3 1021.2 2.8
28/07:00am 15.3 15.3 14.3 94 0.6 NW 7 9 4 5 1020.8 1020.7 2.4
28/06:30am 15.2 15.3 14.4 95 0.5 WNW 7 9 4 5 1020.3 1020.2 1.6
28/06:00am 15.1 16.0 14.1 94 0.6 N 2 7 1 4 1019.5 1019.4 1.6
28/05:30am 15.1 15.1 14.1 94 0.6 NNE 7 9 4 5 1019.4 1019.3 1.4
28/05:00am 15.1 16.4 14.1 94 0.6 CALM 0 0 0 0 1019.6 1019.5 1.0
28/04:30am 15.0 14.5 13.7 92 0.7 NNE 9 11 5 6 1019.5 1019.4 1.0
28/04:00am 15.3 14.8 13.7 90 0.9 N 9 11 5 6 1019.4 1019.3 0.6
28/03:30am 15.7 15.0 13.2 85 1.4 N 9 11 5 6 1019.4 1019.3 0.0
28/03:00am 15.7 14.9 12.8 83 1.6 N 9 11 5 6 1019.5 1019.4 0.0
28/02:30am 15.4 14.2 11.6 78 2.1 N 9 9 5 5 1019.6 1019.5 0.0
28/02:00am 15.8 15.0 11.6 76 2.3 N 7 9 4 5 1019.8 1019.7 0.0
28/01:30am 15.6 14.2 11.0 74 2.5 N 9 11 5 6 1019.6 1019.5 0.0
28/01:00am 15.1 14.0 10.7 75 2.3 N 7 9 4 5 1019.9 1019.8 0.0
28/12:30am 14.9 13.8 10.7 76 2.2 NNE 7 9 4 5 1019.7 1019.6 0.0
28/12:00am 15.1 14.1 10.9 76 2.2 NNE 7 9 4 5 1019.8 1019.7 0.0
 
Date/Time
CST
Temp
°C
App
Temp
°C
Dew
Point
Rel
Hum
%
Delta-T
°C
Wind Press
QNH
hPa
Press
MSL
hPa
Rain
since 9 am
mm
Dir
 
Spd
km/h
Gust
km/h
Spd
kts
Gust
kts
27/11:30pm 13.8 11.8 10.2 79 1.9 NNE 11 13 6 7 1020.3 1020.2 0.0
27/11:00pm 13.1 13.0 9.5 79 1.8 CALM 0 0 0 0 1020.2 1020.1 0.0
27/10:30pm 12.9 12.6 8.6 75 2.1 CALM 0 0 0 0 1020.4 1020.3 0.0
27/10:00pm 13.8 13.7 9.3 74 2.3 CALM 0 0 0 0 1020.3 1020.2 0.0
27/09:30pm 14.6 14.7 10.0 74 2.4 CALM 0 0 0 0 1020.6 1020.5 0.0
27/09:00pm 15.1 15.3 10.5 74 2.4 CALM 0 0 0 0 1020.6 1020.5 0.0
27/08:30pm 14.3 14.2 9.3 72 2.6 CALM 0 0 0 0 1020.3 1020.2 0.0
27/08:00pm 14.9 14.8 9.3 69 2.9 CALM 0 0 0 0 1020.4 1020.3 0.0
27/07:30pm 16.6 16.7 10.2 66 3.4 CALM 0 0 0 0 1020.1 1020.0 0.0
27/07:00pm 17.5 17.8 10.9 65 3.6 CALM 0 0 0 0 1019.9 1019.8 0.0
27/06:30pm 18.3 18.7 11.1 63 3.9 CALM 0 0 0 0 1019.9 1019.8 0.0
27/06:00pm 19.0 18.7 11.3 61 4.2 WNW 4 7 2 4 1019.7 1019.6 0.0
27/05:30pm 19.7 18.5 11.5 59 4.5 NW 9 13 5 7 1019.7 1019.6 0.0
27/05:00pm 20.0 18.4 11.5 58 4.7 NW 11 15 6 8 1019.6 1019.5 0.0
27/04:30pm 20.2 18.2 11.4 57 4.9 WNW 13 15 7 8 1019.4 1019.3 0.0
27/04:00pm 20.2 18.2 11.4 57 4.9 WNW 13 17 7 9 1019.4 1019.3 0.0
27/03:30pm 20.2 17.4 11.4 57 4.9 WNW 17 24 9 13 1019.7 1019.6 0.0
27/03:00pm 20.4 17.8 12.1 59 4.6 NW 17 20 9 11 1019.6 1019.5 0.0
27/02:30pm 20.8 18.4 11.4 55 5.2 WNW 15 20 8 11 1019.7 1019.6 0.0
27/02:00pm 20.9 18.5 11.3 54 5.3 WNW 15 20 8 11 1019.8 1019.7 0.0
27/01:30pm 20.6 18.0 12.1 58 4.8 WNW 17 24 9 13 1020.1 1020.0 0.0
27/01:00pm 20.8 17.6 11.2 54 5.3 NW 19 24 10 13 1020.5 1020.4 0.0
27/12:30pm 20.8 17.7 11.7 56 5.1 NW 19 28 10 15 1021.1 1021.0 0.0
27/12:00pm 21.2 17.5 10.1 49 6.0 NW 20 26 11 14 1021.5 1021.4 0.0
27/11:30am 21.4 17.2 9.9 48 6.2 NW 22 32 12 17 1022.1 1022.0 0.0
27/11:00am 20.9 17.2 10.1 50 5.9 NNW 20 28 11 15 1022.5 1022.4 0.0
27/10:30am 20.8 17.9 9.7 49 6.0 NNW 15 20 8 11 1022.6 1022.5 0.0
27/10:00am 20.6 18.2 10.1 51 5.7 NNW 13 17 7 9 1022.5 1022.4 0.0
27/09:30am 19.7 17.9 9.6 52 5.4 N 9 13 5 7 1022.3 1022.2 0.0
27/09:00am 16.8 17.0 10.4 66 3.4 CALM 0 0 0 0 1022.3 1022.2 0.0
27/08:30am 15.3 15.6 10.9 75 2.3 CALM 0 0 0 0 1022.0 1021.9 0.0
27/08:00am 14.4 14.8 11.4 82 1.6 CALM 0 0 0 0 1021.8 1021.7 0.0
27/07:30am 14.0 14.4 11.3 84 1.4 CALM 0 0 0 0 1021.7 1021.6 0.0
27/07:00am 13.9 14.3 11.4 85 1.3 CALM 0 0 0 0 1021.5 1021.4 0.0
27/06:30am 14.3 14.6 10.9 80 1.8 CALM 0 0 0 0 1021.2 1021.1 0.0
27/06:00am 14.6 14.9 11.0 79 1.9 CALM 0 0 0 0 1021.0 1020.9 0.0
27/05:30am 14.8 15.3 11.6 81 1.7 CALM 0 0 0 0 1020.6 1020.5 0.0
27/05:00am 15.2 15.5 11.0 76 2.2 CALM 0 0 0 0 1020.7 1020.6 0.0
27/04:30am 16.1 16.3 10.6 70 2.9 CALM 0 0 0 0 1020.7 1020.6 0.0
27/04:00am 15.8 16.4 12.0 78 2.1 CALM 0 6 0 3 1020.9 1020.8 0.0
27/03:30am 16.3 15.2 10.8 70 2.9 NE 7 7 4 4 1020.9 1020.8 0.0
27/03:00am 16.0 15.1 11.4 74 2.5 NNE 7 9 4 5 1021.1 1021.0 0.0
27/02:30am 16.2 15.3 11.4 73 2.6 NE 7 9 4 5 1021.1 1021.0 0.0
27/02:00am 16.6 15.7 11.5 72 2.8 NNE 7 7 4 4 1021.5 1021.4 0.0
27/01:30am 16.9 15.7 11.6 71 2.9 NE 9 11 5 6 1021.6 1021.5 0.0
27/01:00am 16.7 16.5 11.8 73 2.7 ENE 4 7 2 4 1021.8 1021.7 0.0
27/12:30am 16.6 16.7 12.8 78 2.1 E 4 7 2 4 1022.1 1022.0 0.0
27/12:00am 16.6 17.0 11.3 71 2.9 CALM 0 0 0 0 1022.3 1022.2 0.0

Other Formats:

Comma delimited format used in spreadsheet applications
http://www.bom.gov.au/fwo/IDS60801/IDS60801.95658.axf

JavaScript Object Notation format (JSON) in row-major order
http://www.bom.gov.au/fwo/IDS60801/IDS60801.95658.json